Time;durP1;ratioP1;P1;durP2;ratioP2;P2;SDS_P1;SDS_P2;PMS_P1;PMS_P2;Temp;Humidity;BMP_temperature;BMP_pressure;BME280_temperature;BME280_humidity;BME280_pressure;Samples;Min_cycle;Max_cycle;Signal;HPM_P1;HPM_P2
2021/01/01 00:01:45;;;;;;;0.80;0.80;;;;;;;-3.64;91.16;98490.91;4922385;29;20178;-86
2021/01/01 00:12:36;;;;;;;0.63;0.63;;;;;;;-3.46;91.92;98496.06;4924231;29;20469;-85
2021/01/01 00:19:18;;;;;;;0.83;0.83;;;;;;;-3.56;91.60;98507.47;4921626;29;20162;-86
2021/01/01 00:22:53;;;;;;;0.97;0.97;;;;;;;-3.55;91.31;98513.53;4924755;29;20212;-86
2021/01/01 00:26:27;;;;;;;0.80;0.80;;;;;;;-3.59;91.54;98509.56;4936158;29;20265;-86
2021/01/01 00:30:31;;;;;;;0.67;0.67;;;;;;;-3.57;90.97;98505.81;4899563;29;20470;-85
2021/01/01 00:33:36;;;;;;;0.77;0.77;;;;;;;-3.56;91.19;98523.19;4904811;29;20215;-85
2021/01/01 00:36:59;;;;;;;0.87;0.87;;;;;;;-3.66;90.95;98532.13;4924681;29;20245;-84
2021/01/01 00:39:59;;;;;;;0.80;0.80;;;;;;;-3.71;91.27;98519.50;4919816;29;20193;-85
2021/01/01 00:51:55;;;;;;;0.87;0.87;;;;;;;-3.67;91.52;98536.53;4856403;29;20238;-84
2021/01/01 00:55:19;;;;;;;0.50;0.50;;;;;;;-3.78;91.30;98522.91;4858781;29;20443;-85
2021/01/01 00:58:45;;;;;;;1.10;1.10;;;;;;;-3.69;91.47;98530.66;4867337;29;20491;-86
2021/01/01 01:02:16;;;;;;;0.70;0.70;;;;;;;-3.65;91.75;98524.13;4843486;29;20202;-85
2021/01/01 01:05:14;;;;;;;0.70;0.70;;;;;;;-3.56;91.70;98533.66;4855861;29;20204;-85
2021/01/01 01:08:48;;;;;;;0.60;0.60;;;;;;;-3.63;91.94;98518.72;4867216;29;20218;-85
2021/01/01 01:12:06;;;;;;;1.00;1.00;;;;;;;-3.60;91.27;98534.13;4867912;29;20413;-85
2021/01/01 01:15:45;;;;;;;0.90;0.90;;;;;;;-3.74;91.44;98522.44;4794743;30;20216;-85
2021/01/01 01:19:15;;;;;;;0.90;0.90;;;;;;;-3.62;91.71;98534.28;4765225;29;20231;-85
2021/01/01 01:22:38;;;;;;;0.67;0.67;;;;;;;-3.68;91.76;98540.13;4818216;29;20474;-85
2021/01/01 01:25:49;;;;;;;0.60;0.60;;;;;;;-3.60;92.26;98531.50;4830556;29;20487;-86
2021/01/01 01:28:47;;;;;;;0.80;0.80;;;;;;;-3.55;91.96;98535.28;4819194;29;20212;-85
2021/01/01 01:32:24;;;;;;;1.00;1.00;;;;;;;-3.52;91.98;98546.41;4825292;29;20221;-85
2021/01/01 01:35:36;;;;;;;0.70;0.70;;;;;;;-3.53;91.71;98526.44;4828283;29;20192;-86
2021/01/01 01:39:22;;;;;;;0.70;0.70;;;;;;;-3.57;91.94;98536.41;4821559;29;20187;-86
2021/01/01 01:42:53;;;;;;;0.70;0.70;;;;;;;-3.58;91.81;98529.53;4799622;29;20271;-85
2021/01/01 01:46:29;;;;;;;1.07;1.07;;;;;;;-3.49;92.22;98544.31;4816934;29;20450;-86
2021/01/01 01:50:10;;;;;;;0.90;0.90;;;;;;;-3.49;92.57;98531.22;4830069;29;20444;-84
2021/01/01 01:53:45;;;;;;;1.13;1.13;;;;;;;-3.44;92.16;98535.97;4879836;29;20471;-86
2021/01/01 02:01:53;;;;;;;0.97;0.97;;;;;;;-3.40;92.45;98556.44;4882151;29;20210;-86
2021/01/01 02:09:34;;;;;;;1.27;1.27;;;;;;;-3.44;91.74;98556.94;4884941;29;20428;-85
2021/01/01 02:13:10;;;;;;;0.83;0.83;;;;;;;-3.45;92.36;98543.00;4879119;29;20226;-86
2021/01/01 02:16:57;;;;;;;0.80;0.80;;;;;;;-3.35;92.56;98542.88;4923421;29;20440;-85
2021/01/01 02:20:48;;;;;;;1.00;1.00;;;;;;;-3.27;92.45;98564.72;4910746;29;20440;-85
2021/01/01 02:24:16;;;;;;;1.00;1.00;;;;;;;-3.39;92.30;98558.09;4921551;29;20465;-85
2021/01/01 02:27:38;;;;;;;0.70;0.70;;;;;;;-3.35;92.45;98538.47;4872809;29;20464;-85
2021/01/01 02:31:26;;;;;;;0.70;0.70;;;;;;;-3.25;92.46;98552.25;4866630;29;20194;-87
2021/01/01 02:35:39;;;;;;;0.80;0.80;;;;;;;-3.37;91.93;98552.72;4862728;29;20259;-86
2021/01/01 02:43:05;;;;;;;1.00;1.00;;;;;;;-3.32;92.83;98547.81;4865014;29;20467;-86
2021/01/01 02:46:38;;;;;;;1.20;1.20;;;;;;;-3.39;92.07;98537.16;4857972;29;20213;-86
2021/01/01 02:50:08;;;;;;;0.80;0.80;;;;;;;-3.34;92.32;98555.00;4885031;29;20280;-86
2021/01/01 02:54:28;;;;;;;1.30;1.30;;;;;;;-3.35;92.57;98541.09;4884241;29;20174;-87
2021/01/01 02:58:35;;;;;;;1.00;1.00;;;;;;;-3.41;92.15;98533.88;4878173;29;20210;-86
2021/01/01 03:01:51;;;;;;;1.30;1.30;;;;;;;-3.31;92.19;98546.84;4886653;29;20210;-86
2021/01/01 03:05:43;;;;;;;0.90;0.90;;;;;;;-3.38;92.42;98544.03;4903153;29;20211;-86
2021/01/01 03:09:16;;;;;;;0.90;0.90;;;;;;;-3.36;92.62;98544.69;4897564;29;20192;-86
2021/01/01 03:12:57;;;;;;;0.60;0.60;;;;;;;-3.23;92.90;98541.63;4884164;29;20211;-86
2021/01/01 03:16:48;;;;;;;0.70;0.70;;;;;;;-3.09;92.89;98550.69;4886000;29;20465;-86
2021/01/01 03:20:58;;;;;;;0.50;0.50;;;;;;;-3.16;92.74;98537.38;4902547;29;20198;-86
2021/01/01 03:28:40;;;;;;;0.60;0.60;;;;;;;-3.22;92.63;98533.59;4905264;29;20193;-85
2021/01/01 03:32:10;;;;;;;0.67;0.67;;;;;;;-3.17;92.85;98547.03;4849750;29;20190;-83
2021/01/01 03:36:10;;;;;;;0.70;0.70;;;;;;;-3.32;92.62;98530.31;4859680;29;20191;-87
2021/01/01 03:40:32;;;;;;;0.50;0.50;;;;;;;-3.22;92.28;98554.56;4869336;29;20652;-85
2021/01/01 03:48:01;;;;;;;0.73;0.73;;;;;;;-3.38;92.42;98537.97;4846837;29;20455;-86
2021/01/01 03:56:05;;;;;;;0.60;0.60;;;;;;;-3.31;93.05;98563.38;4862396;29;20444;-86
2021/01/01 03:59:52;;;;;;;0.60;0.60;;;;;;;-3.28;92.90;98557.84;4868206;29;20535;-85
2021/01/01 04:02:59;;;;;;;0.60;0.60;;;;;;;-3.27;93.30;98564.72;4867355;29;20505;-86
2021/01/01 04:07:02;;;;;;;0.50;0.50;;;;;;;-3.21;93.36;98547.53;4819924;29;20460;-85
2021/01/01 04:10:22;;;;;;;0.67;0.67;;;;;;;-3.21;93.14;98550.13;4905319;29;20453;-85
2021/01/01 04:14:27;;;;;;;0.53;0.53;;;;;;;-3.21;93.15;98543.09;4899730;29;20500;-86
2021/01/01 04:17:59;;;;;;;0.53;0.53;;;;;;;-3.08;93.52;98553.16;4901389;29;20483;-85
2021/01/01 04:22:00;;;;;;;0.70;0.70;;;;;;;-3.04;93.21;98544.00;4902741;29;20458;-85
2021/01/01 04:24:56;;;;;;;0.60;0.60;;;;;;;-3.11;92.92;98546.41;4876776;29;20257;-84
2021/01/01 04:28:30;;;;;;;0.70;0.70;;;;;;;-3.13;93.34;98542.34;4902537;29;20190;-84
2021/01/01 04:32:12;;;;;;;0.60;0.60;;;;;;;-3.12;93.44;98541.31;4899219;29;20185;-85
2021/01/01 04:35:44;;;;;;;0.60;0.60;;;;;;;-3.12;93.55;98543.94;4907188;29;20222;-85
2021/01/01 04:39:49;;;;;;;0.73;0.73;;;;;;;-3.02;93.18;98556.91;4860088;29;20523;-85
2021/01/01 04:43:19;;;;;;;0.70;0.70;;;;;;;-3.12;93.94;98544.78;4849579;29;20218;-86
2021/01/01 04:51:01;;;;;;;0.60;0.60;;;;;;;-3.02;93.65;98542.00;4855426;29;20199;-86
2021/01/01 04:54:38;;;;;;;0.67;0.67;;;;;;;-2.96;93.38;98561.53;4867852;29;20231;-86
2021/01/01 04:58:18;;;;;;;0.70;0.70;;;;;;;-2.86;93.97;98573.53;4837409;29;20244;-86
2021/01/01 05:02:11;;;;;;;0.70;0.70;;;;;;;-2.97;93.50;98558.06;4848343;29;20219;-86
2021/01/01 05:06:07;;;;;;;0.60;0.60;;;;;;;-2.83;93.65;98573.19;4849495;29;20217;-86
2021/01/01 05:09:40;;;;;;;0.70;0.70;;;;;;;-2.85;93.85;98580.41;4813358;29;20203;-86
2021/01/01 05:13:25;;;;;;;0.57;0.57;;;;;;;-2.83;94.02;98569.75;4828208;29;20212;-85
2021/01/01 05:16:42;;;;;;;0.70;0.70;;;;;;;-2.73;94.10;98579.09;4831777;29;20188;-84
2021/01/01 05:24:08;;;;;;;0.50;0.50;;;;;;;-2.63;94.16;98580.75;4846530;29;20260;-85
2021/01/01 05:35:33;;;;;;;0.50;0.50;;;;;;;-2.54;94.04;98591.09;4747320;30;20260;-86
2021/01/01 05:43:11;;;;;;;0.60;0.60;;;;;;;-2.51;93.90;98598.63;4754028;30;20191;-85
2021/01/01 05:46:52;;;;;;;0.60;0.60;;;;;;;-2.47;93.63;98596.53;4758597;30;20206;-85
2021/01/01 05:54:40;;;;;;;0.50;0.50;;;;;;;-2.41;93.60;98612.44;4785841;29;20221;-84
2021/01/01 05:58:52;;;;;;;0.40;0.40;;;;;;;-2.41;93.77;98606.34;4776682;29;20229;-85
2021/01/01 06:12:12;;;;;;;0.40;0.40;;;;;;;-2.29;93.70;98631.31;4848837;29;20259;-85
2021/01/01 06:19:53;;;;;;;0.60;0.60;;;;;;;-2.31;93.94;98623.59;4844821;29;20204;-85
2021/01/01 06:27:11;;;;;;;0.50;0.50;;;;;;;-2.31;93.86;98623.59;4839635;29;20217;-85
2021/01/01 06:39:48;;;;;;;0.50;0.50;;;;;;;-2.19;93.68;98650.31;4885007;29;20515;-86
2021/01/01 06:43:22;;;;;;;0.40;0.40;;;;;;;-2.14;93.94;98655.09;4871623;29;20230;-85
2021/01/01 06:46:53;;;;;;;0.50;0.50;;;;;;;-2.13;93.90;98662.81;4868757;29;20193;-84
2021/01/01 06:50:58;;;;;;;0.50;0.50;;;;;;;-2.11;93.41;98663.47;4866172;29;20171;-85
2021/01/01 06:54:40;;;;;;;0.40;0.40;;;;;;;-2.19;94.02;98658.19;4847727;29;20194;-85
2021/01/01 06:58:28;;;;;;;0.40;0.40;;;;;;;-2.16;93.73;98654.44;4866357;29;20186;-86
2021/01/01 07:02:03;;;;;;;0.50;0.50;;;;;;;-2.24;93.44;98647.41;4912045;29;20207;-85
2021/01/01 07:05:30;;;;;;;0.40;0.40;;;;;;;-2.17;93.78;98666.75;4915554;29;20221;-85
2021/01/01 07:08:57;;;;;;;0.50;0.50;;;;;;;-2.14;93.43;98671.66;4906684;29;20177;-85
2021/01/01 07:12:41;;;;;;;0.40;0.40;;;;;;;-2.09;93.05;98672.00;4921049;29;20206;-84
2021/01/01 07:16:34;;;;;;;0.50;0.50;;;;;;;-2.13;93.35;98667.22;4922166;29;20183;-86
2021/01/01 07:19:55;;;;;;;0.40;0.40;;;;;;;-2.06;93.68;98670.88;4884044;29;20258;-86
2021/01/01 07:23:20;;;;;;;0.40;0.40;;;;;;;-2.15;93.61;98651.66;4885067;29;20213;-85
2021/01/01 07:26:45;;;;;;;0.50;0.50;;;;;;;-2.15;93.20;98646.41;4884009;29;20207;-85
2021/01/01 08:20:27;;;;;;;0.50;0.50;;;;;;;-1.98;93.63;98718.09;4900870;29;20201;-84
2021/01/01 08:23:56;;;;;;;0.50;0.50;;;;;;;-1.92;93.22;98727.97;4887829;29;20229;-84
2021/01/01 08:27:03;;;;;;;0.50;0.50;;;;;;;-1.94;92.97;98727.31;4892080;29;20197;-85
2021/01/01 08:30:00;;;;;;;0.40;0.40;;;;;;;-1.99;93.26;98706.78;4845284;29;20181;-85
2021/01/01 08:33:55;;;;;;;0.40;0.40;;;;;;;-1.97;93.21;98704.00;4893809;29;20211;-84
2021/01/01 08:37:01;;;;;;;0.50;0.50;;;;;;;-1.90;93.30;98713.69;4893147;29;20261;-85
2021/01/01 08:40:06;;;;;;;0.50;0.50;;;;;;;-1.87;93.00;98715.97;4889596;29;20190;-85
2021/01/01 08:43:06;;;;;;;0.50;0.50;;;;;;;-1.87;93.16;98708.09;4902116;29;20201;-85
2021/01/01 08:46:39;;;;;;;0.40;0.40;;;;;;;-1.74;93.05;98709.44;4905293;29;20182;-84
2021/01/01 08:50:05;;;;;;;0.40;0.40;;;;;;;-1.80;93.06;98706.47;4886535;29;20182;-85
2021/01/01 08:53:14;;;;;;;0.40;0.40;;;;;;;-1.63;92.91;98730.13;4875779;29;20194;-85
2021/01/01 08:56:07;;;;;;;0.40;0.40;;;;;;;-1.67;92.81;98715.66;4892070;29;20181;-85
2021/01/01 08:59:11;;;;;;;0.40;0.40;;;;;;;-1.65;92.83;98722.41;4881358;29;20190;-85
2021/01/01 09:01:59;;;;;;;0.40;0.40;;;;;;;-1.57;92.55;98725.03;4891429;29;20170;-84
2021/01/01 09:04:41;;;;;;;0.40;0.40;;;;;;;-1.67;92.47;98719.09;4873038;29;20202;-85
2021/01/01 09:07:42;;;;;;;0.40;0.40;;;;;;;-1.56;92.68;98725.84;4892947;29;20203;-83
2021/01/01 09:10:47;;;;;;;0.40;0.40;;;;;;;-1.48;92.53;98736.34;4860074;29;20229;-84
2021/01/01 09:13:48;;;;;;;0.40;0.40;;;;;;;-1.52;92.36;98735.84;4889353;29;20189;-84
2021/01/01 09:17:12;;;;;;;0.40;0.40;;;;;;;-1.40;92.19;98739.00;4904875;29;20185;-84
2021/01/01 09:20:18;;;;;;;0.50;0.50;;;;;;;-1.45;92.38;98726.34;4900681;29;20190;-84
2021/01/01 09:23:35;;;;;;;0.40;0.40;;;;;;;-1.33;91.97;98742.59;4900873;29;20218;-85
2021/01/01 09:27:01;;;;;;;0.47;0.47;;;;;;;-1.36;92.09;98737.66;4902501;29;20186;-85
2021/01/01 09:29:57;;;;;;;0.50;0.50;;;;;;;-1.47;91.78;98733.56;4907267;29;20197;-84
2021/01/01 09:33:08;;;;;;;0.40;0.40;;;;;;;-1.34;91.73;98754.06;4919882;29;20178;-84
2021/01/01 09:36:22;;;;;;;0.40;0.40;;;;;;;-1.41;91.70;98742.59;4901017;29;20212;-85
2021/01/01 09:42:50;;;;;;;0.50;0.50;;;;;;;-1.29;91.33;98751.78;4902013;29;20200;-85
2021/01/01 09:45:45;;;;;;;0.40;0.40;;;;;;;-1.31;91.36;98748.50;4904085;29;20225;-84
2021/01/01 09:48:39;;;;;;;0.40;0.40;;;;;;;-1.26;91.10;98743.53;4886112;29;20206;-84
2021/01/01 09:51:58;;;;;;;0.40;0.40;;;;;;;-1.24;91.04;98735.50;4885398;29;20181;-84
2021/01/01 09:54:56;;;;;;;0.40;0.40;;;;;;;-1.18;91.21;98754.06;4886435;29;20203;-84
2021/01/01 09:57:54;;;;;;;0.40;0.40;;;;;;;-1.25;91.40;98736.50;4885238;29;20206;-84
2021/01/01 10:00:46;;;;;;;0.50;0.50;;;;;;;-1.22;90.96;98747.50;4884160;29;20178;-84
2021/01/01 10:03:51;;;;;;;0.50;0.50;;;;;;;-1.26;91.26;98734.88;4904110;29;20227;-83
2021/01/01 10:07:06;;;;;;;0.43;0.43;;;;;;;-1.25;90.98;98737.31;4904160;29;20325;-84
2021/01/01 10:10:04;;;;;;;0.40;0.40;;;;;;;-1.22;91.01;98723.84;4902236;29;20290;-84
2021/01/01 10:12:53;;;;;;;0.40;0.40;;;;;;;-1.23;91.63;98724.84;4877691;29;20221;-84
2021/01/01 10:15:42;;;;;;;0.40;0.40;;;;;;;-1.15;91.22;98752.91;4913980;29;20190;-85
2021/01/01 10:23:06;;;;;;;0.40;0.40;;;;;;;-1.11;90.55;98762.09;4814610;29;20248;-84
2021/01/01 10:25:43;;;;;;;0.40;0.40;;;;;;;-1.05;90.62;98770.16;4831492;29;20230;-83
2021/01/01 10:28:45;;;;;;;0.40;0.40;;;;;;;-1.10;90.72;98761.94;4833370;29;20180;-84
2021/01/01 10:31:30;;;;;;;0.40;0.40;;;;;;;-1.05;90.77;98756.19;4845502;29;20200;-84
2021/01/01 10:34:25;;;;;;;0.30;0.30;;;;;;;-1.09;90.71;98749.63;4846822;29;20184;-83
2021/01/01 10:37:27;;;;;;;0.40;0.40;;;;;;;-1.09;90.70;98747.81;4846032;29;20207;-84
2021/01/01 10:40:10;;;;;;;0.40;0.40;;;;;;;-0.93;90.63;98763.53;4831889;29;20180;-84
2021/01/01 10:43:16;;;;;;;0.40;0.40;;;;;;;-0.92;91.14;98762.56;4846868;29;20251;-83
2021/01/01 10:46:36;;;;;;;0.40;0.40;;;;;;;-0.97;90.86;98761.41;4833036;29;20219;-84
2021/01/01 10:49:43;;;;;;;0.40;0.40;;;;;;;-0.99;90.95;98756.34;4824660;29;20187;-83
2021/01/01 10:52:51;;;;;;;0.40;0.40;;;;;;;-0.97;90.72;98764.03;4817998;29;20183;-84
2021/01/01 10:55:45;;;;;;;0.40;0.40;;;;;;;-0.91;90.46;98766.00;4832432;29;20268;-83
2021/01/01 10:58:28;;;;;;;0.40;0.40;;;;;;;-0.88;90.67;98769.13;4853328;29;20167;-85
2021/01/01 11:05:22;;;;;;;0.40;0.40;;;;;;;-0.81;90.76;98766.66;4866976;29;20226;-83
2021/01/01 11:08:21;;;;;;;0.40;0.40;;;;;;;-0.94;90.52;98745.31;4865859;29;20203;-83
2021/01/01 11:11:05;;;;;;;0.40;0.40;;;;;;;-0.99;90.05;98755.53;4836038;29;20216;-85
2021/01/01 11:14:23;;;;;;;0.40;0.40;;;;;;;-1.03;90.57;98741.91;4850418;29;20191;-83
2021/01/01 12:25:49;;;;;;;0.50;0.50;;;;;;;-0.83;90.44;98729.16;4885939;29;20190;-84
2021/01/01 12:28:37;;;;;;;0.40;0.40;;;;;;;-0.84;90.35;98718.84;4888966;29;20186;-84
2021/01/01 12:35:28;;;;;;;0.40;0.40;;;;;;;-0.79;89.92;98729.69;4872832;29;20277;-84
2021/01/01 12:38:18;;;;;;;0.40;0.40;;;;;;;-0.73;89.90;98742.94;4905284;29;20206;-84
